ΕΜΥ, Εθνική Μετεωρολογική Υπηρεσία - Δελτία Καιρού, Προγνώσεις

ΑΕΡΟΝΑΥΤΙΛΙΑ

GREEK AIRPORTS CODES

TAF LGKC 300200Z 3003/3012 19012KT 9999 FEW018 BKN025 PROB40 TEMPO 3003/3012 5000 RA SCT010 FEW018TCU BKN025 PROB40 TEMPO 3003/3012 4000 TSRA SCT008 FEW018CB BKN020=

EUROPEAN AIRPORTS CODES